Miri, Malaysia
Current Conditions -  °F | °C
As of 11:00 PM on Sunday 21 Dec 2014 (Local Time) from WBGR Reporting Station
Broken Clouds Broken Clouds  
Wind Chill: 77°   Ceiling: 15000
Heat Index: 78°   Visibility: 6mi
Dew Point: 75°   Wind: 7mph
Humidity: 94%   Direction: 120°ESE
Pressure: 29.83"   Gusts: NA
Location:  4.4°N, 113.97°E
Report Text: WBGR 211500Z 12006KT 9999 SCT014 BKN150 25/24 Q1010
Loading
Personal Weather Stations






























Interactive Weather Map New forecast layout! Learn more

10-Day Weather Forecast

Advertisements
Track Severe Weather on mobile